sensor_id;sensor_type;location;lat;lon;timestamp;P1;durP1;ratioP1;P2;durP2;ratioP2
13927;SDS011;7036;50.834;4.718;2023-08-08T00:01:15;1.93;;;1.40;;
13927;SDS011;7036;50.834;4.718;2023-08-08T00:03:42;1.17;;;1.13;;
13927;SDS011;7036;50.834;4.718;2023-08-08T00:06:09;1.50;;;1.10;;
13927;SDS011;7036;50.834;4.718;2023-08-08T00:08:37;3.13;;;1.30;;
13927;SDS011;7036;50.834;4.718;2023-08-08T00:11:04;1.43;;;1.00;;
13927;SDS011;7036;50.834;4.718;2023-08-08T00:13:31;1.43;;;1.30;;
13927;SDS011;7036;50.834;4.718;2023-08-08T00:15:59;2.22;;;1.38;;
13927;SDS011;7036;50.834;4.718;2023-08-08T00:18:27;3.40;;;1.50;;
13927;SDS011;7036;50.834;4.718;2023-08-08T00:20:55;2.05;;;1.40;;
13927;SDS011;7036;50.834;4.718;2023-08-08T00:23:23;2.78;;;1.40;;
13927;SDS011;7036;50.834;4.718;2023-08-08T00:25:50;2.10;;;1.20;;
13927;SDS011;7036;50.834;4.718;2023-08-08T00:28:19;1.95;;;1.30;;
13927;SDS011;7036;50.834;4.718;2023-08-08T00:30:45;2.53;;;1.43;;
13927;SDS011;7036;50.834;4.718;2023-08-08T00:33:12;1.50;;;1.40;;
13927;SDS011;7036;50.834;4.718;2023-08-08T00:35:40;1.30;;;1.20;;
13927;SDS011;7036;50.834;4.718;2023-08-08T00:38:07;1.53;;;1.20;;
13927;SDS011;7036;50.834;4.718;2023-08-08T00:40:36;2.00;;;1.70;;
13927;SDS011;7036;50.834;4.718;2023-08-08T00:43:02;1.90;;;1.23;;
13927;SDS011;7036;50.834;4.718;2023-08-08T00:45:30;3.20;;;1.25;;
13927;SDS011;7036;50.834;4.718;2023-08-08T00:47:58;1.70;;;1.40;;
13927;SDS011;7036;50.834;4.718;2023-08-08T00:50:25;2.00;;;1.30;;
13927;SDS011;7036;50.834;4.718;2023-08-08T00:52:53;1.38;;;1.27;;
13927;SDS011;7036;50.834;4.718;2023-08-08T00:55:21;1.20;;;1.10;;
13927;SDS011;7036;50.834;4.718;2023-08-08T00:57:49;1.92;;;1.40;;
13927;SDS011;7036;50.834;4.718;2023-08-08T01:00:17;1.67;;;1.35;;
13927;SDS011;7036;50.834;4.718;2023-08-08T01:02:45;1.30;;;1.20;;
13927;SDS011;7036;50.834;4.718;2023-08-08T01:05:13;1.65;;;1.30;;
13927;SDS011;7036;50.834;4.718;2023-08-08T01:07:43;1.40;;;1.27;;
13927;SDS011;7036;50.834;4.718;2023-08-08T01:10:17;1.47;;;1.10;;
13927;SDS011;7036;50.834;4.718;2023-08-08T01:12:47;2.37;;;1.40;;
13927;SDS011;7036;50.834;4.718;2023-08-08T01:15:13;2.33;;;1.30;;
13927;SDS011;7036;50.834;4.718;2023-08-08T01:17:40;1.70;;;1.33;;
13927;SDS011;7036;50.834;4.718;2023-08-08T01:20:07;3.92;;;1.38;;
13927;SDS011;7036;50.834;4.718;2023-08-08T01:25:17;2.80;;;1.13;;
13927;SDS011;7036;50.834;4.718;2023-08-08T01:27:44;3.53;;;1.55;;
13927;SDS011;7036;50.834;4.718;2023-08-08T01:30:12;2.95;;;1.30;;
13927;SDS011;7036;50.834;4.718;2023-08-08T01:32:39;1.35;;;1.20;;
13927;SDS011;7036;50.834;4.718;2023-08-08T01:35:07;1.58;;;1.15;;
13927;SDS011;7036;50.834;4.718;2023-08-08T01:37:36;1.88;;;1.38;;
13927;SDS011;7036;50.834;4.718;2023-08-08T01:40:04;1.80;;;1.17;;
13927;SDS011;7036;50.834;4.718;2023-08-08T01:42:32;1.50;;;1.40;;
13927;SDS011;7036;50.834;4.718;2023-08-08T01:44:59;1.20;;;1.10;;
13927;SDS011;7036;50.834;4.718;2023-08-08T01:47:27;1.98;;;1.50;;
13927;SDS011;7036;50.834;4.718;2023-08-08T01:49:56;2.53;;;1.45;;
13927;SDS011;7036;50.834;4.718;2023-08-08T01:52:23;1.50;;;1.40;;
13927;SDS011;7036;50.834;4.718;2023-08-08T01:54:51;1.40;;;1.30;;
13927;SDS011;7036;50.834;4.718;2023-08-08T01:57:18;1.73;;;1.42;;
13927;SDS011;7036;50.834;4.718;2023-08-08T01:59:46;1.92;;;1.20;;
13927;SDS011;7036;50.834;4.718;2023-08-08T02:02:14;2.45;;;1.30;;
13927;SDS011;7036;50.834;4.718;2023-08-08T02:04:42;2.40;;;1.38;;
13927;SDS011;7036;50.834;4.718;2023-08-08T02:07:10;2.40;;;1.40;;
13927;SDS011;7036;50.834;4.718;2023-08-08T02:09:39;1.92;;;1.33;;
13927;SDS011;7036;50.834;4.718;2023-08-08T02:12:06;1.80;;;1.20;;
13927;SDS011;7036;50.834;4.718;2023-08-08T02:14:33;1.83;;;1.20;;
13927;SDS011;7036;50.834;4.718;2023-08-08T02:17:00;2.40;;;1.40;;
13927;SDS011;7036;50.834;4.718;2023-08-08T02:19:28;1.23;;;1.10;;
13927;SDS011;7036;50.834;4.718;2023-08-08T02:21:56;1.90;;;1.50;;
13927;SDS011;7036;50.834;4.718;2023-08-08T02:24:24;2.20;;;1.25;;
13927;SDS011;7036;50.834;4.718;2023-08-08T02:26:52;2.58;;;1.30;;
13927;SDS011;7036;50.834;4.718;2023-08-08T02:29:20;2.08;;;1.30;;
13927;SDS011;7036;50.834;4.718;2023-08-08T02:31:48;2.75;;;1.17;;
13927;SDS011;7036;50.834;4.718;2023-08-08T02:34:16;2.88;;;1.27;;
13927;SDS011;7036;50.834;4.718;2023-08-08T02:36:44;2.40;;;1.35;;
13927;SDS011;7036;50.834;4.718;2023-08-08T02:39:12;1.80;;;1.33;;
13927;SDS011;7036;50.834;4.718;2023-08-08T02:41:40;2.85;;;1.75;;
13927;SDS011;7036;50.834;4.718;2023-08-08T02:44:08;1.45;;;1.00;;
13927;SDS011;7036;50.834;4.718;2023-08-08T02:46:36;1.55;;;1.30;;
13927;SDS011;7036;50.834;4.718;2023-08-08T02:49:04;1.30;;;1.20;;
13927;SDS011;7036;50.834;4.718;2023-08-08T02:51:32;2.28;;;1.10;;
13927;SDS011;7036;50.834;4.718;2023-08-08T02:54:00;1.95;;;1.42;;
13927;SDS011;7036;50.834;4.718;2023-08-08T02:56:28;1.88;;;1.38;;
13927;SDS011;7036;50.834;4.718;2023-08-08T02:58:55;3.10;;;1.50;;
13927;SDS011;7036;50.834;4.718;2023-08-08T03:01:22;2.08;;;1.25;;
13927;SDS011;7036;50.834;4.718;2023-08-08T03:03:49;1.40;;;1.25;;
13927;SDS011;7036;50.834;4.718;2023-08-08T03:06:16;2.58;;;1.23;;
13927;SDS011;7036;50.834;4.718;2023-08-08T03:08:45;3.03;;;1.50;;
13927;SDS011;7036;50.834;4.718;2023-08-08T03:11:13;1.75;;;1.35;;
13927;SDS011;7036;50.834;4.718;2023-08-08T03:13:41;4.40;;;1.40;;
13927;SDS011;7036;50.834;4.718;2023-08-08T03:16:08;1.90;;;1.37;;
13927;SDS011;7036;50.834;4.718;2023-08-08T03:18:35;2.67;;;1.20;;
13927;SDS011;7036;50.834;4.718;2023-08-08T03:21:02;1.40;;;1.30;;
13927;SDS011;7036;50.834;4.718;2023-08-08T03:23:29;1.53;;;1.10;;
13927;SDS011;7036;50.834;4.718;2023-08-08T03:25:57;3.50;;;1.38;;
13927;SDS011;7036;50.834;4.718;2023-08-08T03:28:25;3.83;;;1.35;;
13927;SDS011;7036;50.834;4.718;2023-08-08T03:30:52;1.57;;;1.30;;
13927;SDS011;7036;50.834;4.718;2023-08-08T03:33:20;2.05;;;1.33;;
13927;SDS011;7036;50.834;4.718;2023-08-08T03:35:48;2.20;;;1.35;;
13927;SDS011;7036;50.834;4.718;2023-08-08T03:38:15;1.65;;;1.20;;
13927;SDS011;7036;50.834;4.718;2023-08-08T03:40:43;1.58;;;1.17;;
13927;SDS011;7036;50.834;4.718;2023-08-08T03:43:11;2.08;;;1.30;;
13927;SDS011;7036;50.834;4.718;2023-08-08T03:45:40;2.33;;;1.33;;
13927;SDS011;7036;50.834;4.718;2023-08-08T03:48:08;2.63;;;1.60;;
13927;SDS011;7036;50.834;4.718;2023-08-08T03:50:36;2.47;;;1.63;;
13927;SDS011;7036;50.834;4.718;2023-08-08T03:53:04;2.63;;;1.30;;
13927;SDS011;7036;50.834;4.718;2023-08-08T03:55:32;4.43;;;1.60;;
13927;SDS011;7036;50.834;4.718;2023-08-08T03:57:58;1.60;;;1.30;;
13927;SDS011;7036;50.834;4.718;2023-08-08T04:00:26;1.70;;;1.35;;
13927;SDS011;7036;50.834;4.718;2023-08-08T04:02:54;2.92;;;1.52;;
13927;SDS011;7036;50.834;4.718;2023-08-08T04:05:22;1.83;;;1.08;;
13927;SDS011;7036;50.834;4.718;2023-08-08T04:07:50;2.40;;;1.17;;
13927;SDS011;7036;50.834;4.718;2023-08-08T04:10:18;2.03;;;1.30;;
13927;SDS011;7036;50.834;4.718;2023-08-08T04:12:46;1.92;;;1.40;;
13927;SDS011;7036;50.834;4.718;2023-08-08T04:15:14;2.35;;;1.40;;
13927;SDS011;7036;50.834;4.718;2023-08-08T04:17:42;1.70;;;1.27;;
13927;SDS011;7036;50.834;4.718;2023-08-08T04:20:09;2.20;;;1.13;;
13927;SDS011;7036;50.834;4.718;2023-08-08T04:22:36;1.20;;;1.10;;
13927;SDS011;7036;50.834;4.718;2023-08-08T04:25:03;2.75;;;1.30;;
13927;SDS011;7036;50.834;4.718;2023-08-08T04:27:31;3.05;;;1.50;;
13927;SDS011;7036;50.834;4.718;2023-08-08T04:29:58;1.48;;;1.33;;
13927;SDS011;7036;50.834;4.718;2023-08-08T04:32:26;1.73;;;1.23;;
13927;SDS011;7036;50.834;4.718;2023-08-08T04:34:55;1.55;;;1.45;;
13927;SDS011;7036;50.834;4.718;2023-08-08T04:37:23;1.47;;;1.17;;
13927;SDS011;7036;50.834;4.718;2023-08-08T04:39:49;2.53;;;1.20;;
13927;SDS011;7036;50.834;4.718;2023-08-08T04:42:17;1.85;;;1.20;;
13927;SDS011;7036;50.834;4.718;2023-08-08T04:44:45;2.90;;;1.50;;
13927;SDS011;7036;50.834;4.718;2023-08-08T04:47:13;3.03;;;1.30;;
13927;SDS011;7036;50.834;4.718;2023-08-08T04:49:40;2.97;;;1.50;;
13927;SDS011;7036;50.834;4.718;2023-08-08T04:52:08;2.50;;;1.50;;
13927;SDS011;7036;50.834;4.718;2023-08-08T04:54:36;2.20;;;1.30;;
13927;SDS011;7036;50.834;4.718;2023-08-08T04:57:03;2.42;;;1.63;;
13927;SDS011;7036;50.834;4.718;2023-08-08T04:59:30;2.60;;;1.38;;
13927;SDS011;7036;50.834;4.718;2023-08-08T05:01:58;3.25;;;1.65;;
13927;SDS011;7036;50.834;4.718;2023-08-08T05:04:26;1.42;;;1.20;;
13927;SDS011;7036;50.834;4.718;2023-08-08T05:06:53;2.28;;;1.40;;
13927;SDS011;7036;50.834;4.718;2023-08-08T05:09:21;2.20;;;1.48;;
13927;SDS011;7036;50.834;4.718;2023-08-08T05:11:49;3.20;;;1.42;;
13927;SDS011;7036;50.834;4.718;2023-08-08T05:14:17;3.05;;;1.42;;
13927;SDS011;7036;50.834;4.718;2023-08-08T05:16:45;1.73;;;1.15;;
13927;SDS011;7036;50.834;4.718;2023-08-08T05:19:13;1.75;;;1.30;;
13927;SDS011;7036;50.834;4.718;2023-08-08T05:21:40;2.38;;;1.40;;
13927;SDS011;7036;50.834;4.718;2023-08-08T05:24:08;1.60;;;1.50;;
13927;SDS011;7036;50.834;4.718;2023-08-08T05:26:36;2.25;;;1.42;;
13927;SDS011;7036;50.834;4.718;2023-08-08T05:29:04;1.65;;;1.25;;
13927;SDS011;7036;50.834;4.718;2023-08-08T05:31:32;2.22;;;1.20;;
13927;SDS011;7036;50.834;4.718;2023-08-08T05:34:00;2.35;;;1.08;;
13927;SDS011;7036;50.834;4.718;2023-08-08T05:36:31;2.80;;;1.48;;
13927;SDS011;7036;50.834;4.718;2023-08-08T05:38:57;1.97;;;1.27;;
13927;SDS011;7036;50.834;4.718;2023-08-08T05:41:25;2.63;;;1.40;;
13927;SDS011;7036;50.834;4.718;2023-08-08T05:43:53;2.78;;;1.52;;
13927;SDS011;7036;50.834;4.718;2023-08-08T05:46:21;1.58;;;1.30;;
13927;SDS011;7036;50.834;4.718;2023-08-08T05:48:48;3.90;;;1.73;;
13927;SDS011;7036;50.834;4.718;2023-08-08T05:51:15;2.00;;;1.50;;
13927;SDS011;7036;50.834;4.718;2023-08-08T05:53:43;2.78;;;1.45;;
13927;SDS011;7036;50.834;4.718;2023-08-08T05:56:11;1.75;;;1.23;;
13927;SDS011;7036;50.834;4.718;2023-08-08T05:58:39;2.20;;;1.35;;
13927;SDS011;7036;50.834;4.718;2023-08-08T06:01:07;2.47;;;1.25;;
13927;SDS011;7036;50.834;4.718;2023-08-08T06:03:35;2.17;;;1.40;;
13927;SDS011;7036;50.834;4.718;2023-08-08T06:06:03;2.88;;;1.30;;
13927;SDS011;7036;50.834;4.718;2023-08-08T06:08:31;2.83;;;1.50;;
13927;SDS011;7036;50.834;4.718;2023-08-08T06:10:59;2.33;;;1.50;;
13927;SDS011;7036;50.834;4.718;2023-08-08T06:13:27;3.05;;;1.50;;
13927;SDS011;7036;50.834;4.718;2023-08-08T06:15:55;2.97;;;1.50;;
13927;SDS011;7036;50.834;4.718;2023-08-08T06:18:23;2.13;;;1.45;;
13927;SDS011;7036;50.834;4.718;2023-08-08T06:20:51;2.88;;;1.60;;
13927;SDS011;7036;50.834;4.718;2023-08-08T06:23:18;1.50;;;1.30;;
13927;SDS011;7036;50.834;4.718;2023-08-08T06:25:45;1.80;;;1.40;;
13927;SDS011;7036;50.834;4.718;2023-08-08T06:28:12;2.63;;;1.25;;
13927;SDS011;7036;50.834;4.718;2023-08-08T06:30:40;2.67;;;1.33;;
13927;SDS011;7036;50.834;4.718;2023-08-08T06:33:08;2.13;;;1.45;;
13927;SDS011;7036;50.834;4.718;2023-08-08T06:35:36;1.77;;;1.20;;
13927;SDS011;7036;50.834;4.718;2023-08-08T06:38:04;2.15;;;1.33;;
13927;SDS011;7036;50.834;4.718;2023-08-08T06:40:31;3.58;;;1.55;;
13927;SDS011;7036;50.834;4.718;2023-08-08T06:43:00;1.40;;;1.17;;
13927;SDS011;7036;50.834;4.718;2023-08-08T06:45:28;1.25;;;0.95;;
13927;SDS011;7036;50.834;4.718;2023-08-08T06:47:56;2.35;;;1.38;;
13927;SDS011;7036;50.834;4.718;2023-08-08T06:50:25;2.38;;;1.42;;
13927;SDS011;7036;50.834;4.718;2023-08-08T06:52:52;1.93;;;1.50;;
13927;SDS011;7036;50.834;4.718;2023-08-08T06:55:19;1.90;;;1.48;;
13927;SDS011;7036;50.834;4.718;2023-08-08T06:57:47;2.20;;;1.45;;
13927;SDS011;7036;50.834;4.718;2023-08-08T07:00:14;1.48;;;1.38;;
13927;SDS011;7036;50.834;4.718;2023-08-08T07:02:42;2.03;;;1.48;;
13927;SDS011;7036;50.834;4.718;2023-08-08T07:05:10;2.17;;;1.17;;
13927;SDS011;7036;50.834;4.718;2023-08-08T07:07:38;5.55;;;1.60;;
13927;SDS011;7036;50.834;4.718;2023-08-08T07:10:06;2.38;;;1.83;;
13927;SDS011;7036;50.834;4.718;2023-08-08T07:12:34;3.65;;;2.10;;
13927;SDS011;7036;50.834;4.718;2023-08-08T07:15:01;3.47;;;1.70;;
13927;SDS011;7036;50.834;4.718;2023-08-08T07:17:31;5.32;;;2.28;;
13927;SDS011;7036;50.834;4.718;2023-08-08T07:20:00;4.10;;;1.97;;
13927;SDS011;7036;50.834;4.718;2023-08-08T07:22:27;4.60;;;2.22;;
13927;SDS011;7036;50.834;4.718;2023-08-08T07:24:54;4.72;;;2.28;;
13927;SDS011;7036;50.834;4.718;2023-08-08T07:27:21;5.82;;;1.98;;
13927;SDS011;7036;50.834;4.718;2023-08-08T07:29:49;4.72;;;1.90;;
13927;SDS011;7036;50.834;4.718;2023-08-08T07:32:16;5.60;;;1.80;;
13927;SDS011;7036;50.834;4.718;2023-08-08T07:34:44;5.35;;;2.28;;
13927;SDS011;7036;50.834;4.718;2023-08-08T07:37:13;5.45;;;2.50;;
13927;SDS011;7036;50.834;4.718;2023-08-08T07:39:40;7.30;;;2.13;;
13927;SDS011;7036;50.834;4.718;2023-08-08T07:42:08;5.93;;;2.20;;
13927;SDS011;7036;50.834;4.718;2023-08-08T07:44:36;6.20;;;2.42;;
13927;SDS011;7036;50.834;4.718;2023-08-08T07:47:04;6.85;;;2.28;;
13927;SDS011;7036;50.834;4.718;2023-08-08T07:49:30;5.73;;;2.07;;
13927;SDS011;7036;50.834;4.718;2023-08-08T07:51:58;7.07;;;2.50;;
13927;SDS011;7036;50.834;4.718;2023-08-08T07:54:26;3.58;;;2.30;;
13927;SDS011;7036;50.834;4.718;2023-08-08T07:56:54;6.75;;;2.10;;
13927;SDS011;7036;50.834;4.718;2023-08-08T07:59:22;4.55;;;2.13;;
13927;SDS011;7036;50.834;4.718;2023-08-08T08:01:50;5.13;;;1.92;;
13927;SDS011;7036;50.834;4.718;2023-08-08T08:04:18;4.07;;;2.13;;
13927;SDS011;7036;50.834;4.718;2023-08-08T08:06:46;3.45;;;2.05;;
13927;SDS011;7036;50.834;4.718;2023-08-08T08:09:14;8.20;;;2.60;;
13927;SDS011;7036;50.834;4.718;2023-08-08T08:11:42;9.05;;;2.40;;
13927;SDS011;7036;50.834;4.718;2023-08-08T08:14:09;5.77;;;2.10;;
13927;SDS011;7036;50.834;4.718;2023-08-08T08:16:37;5.95;;;2.40;;
13927;SDS011;7036;50.834;4.718;2023-08-08T08:19:05;3.80;;;1.90;;
13927;SDS011;7036;50.834;4.718;2023-08-08T08:21:32;6.45;;;2.40;;
13927;SDS011;7036;50.834;4.718;2023-08-08T08:24:00;6.15;;;2.22;;
13927;SDS011;7036;50.834;4.718;2023-08-08T08:26:27;5.00;;;1.90;;
13927;SDS011;7036;50.834;4.718;2023-08-08T08:28:55;7.25;;;2.28;;
13927;SDS011;7036;50.834;4.718;2023-08-08T08:31:22;7.90;;;2.50;;
13927;SDS011;7036;50.834;4.718;2023-08-08T08:33:50;4.90;;;2.35;;
13927;SDS011;7036;50.834;4.718;2023-08-08T08:36:18;7.13;;;2.35;;
13927;SDS011;7036;50.834;4.718;2023-08-08T08:38:46;5.15;;;2.20;;
13927;SDS011;7036;50.834;4.718;2023-08-08T08:41:14;3.83;;;1.83;;
13927;SDS011;7036;50.834;4.718;2023-08-08T08:43:41;9.73;;;2.50;;
13927;SDS011;7036;50.834;4.718;2023-08-08T08:46:09;5.70;;;2.10;;
13927;SDS011;7036;50.834;4.718;2023-08-08T08:48:36;5.67;;;2.63;;
13927;SDS011;7036;50.834;4.718;2023-08-08T08:51:03;6.70;;;2.28;;
13927;SDS011;7036;50.834;4.718;2023-08-08T08:53:31;4.20;;;2.05;;
13927;SDS011;7036;50.834;4.718;2023-08-08T08:55:58;4.82;;;2.13;;
13927;SDS011;7036;50.834;4.718;2023-08-08T08:58:26;5.63;;;2.25;;
13927;SDS011;7036;50.834;4.718;2023-08-08T09:00:54;4.05;;;2.58;;
13927;SDS011;7036;50.834;4.718;2023-08-08T09:03:22;4.05;;;2.38;;
13927;SDS011;7036;50.834;4.718;2023-08-08T09:05:50;4.30;;;2.13;;
13927;SDS011;7036;50.834;4.718;2023-08-08T09:08:18;3.92;;;2.28;;
13927;SDS011;7036;50.834;4.718;2023-08-08T09:10:47;2.50;;;1.75;;
13927;SDS011;7036;50.834;4.718;2023-08-08T09:13:14;5.13;;;1.80;;
13927;SDS011;7036;50.834;4.718;2023-08-08T09:15:41;5.07;;;2.00;;
13927;SDS011;7036;50.834;4.718;2023-08-08T09:18:10;5.22;;;2.13;;
13927;SDS011;7036;50.834;4.718;2023-08-08T09:20:36;6.10;;;2.47;;
13927;SDS011;7036;50.834;4.718;2023-08-08T09:23:04;7.82;;;2.40;;
13927;SDS011;7036;50.834;4.718;2023-08-08T09:25:32;8.77;;;2.30;;
13927;SDS011;7036;50.834;4.718;2023-08-08T09:28:00;6.93;;;2.63;;
13927;SDS011;7036;50.834;4.718;2023-08-08T09:30:27;8.45;;;3.03;;
13927;SDS011;7036;50.834;4.718;2023-08-08T09:32:57;7.15;;;2.30;;
13927;SDS011;7036;50.834;4.718;2023-08-08T09:35:22;13.02;;;2.50;;
13927;SDS011;7036;50.834;4.718;2023-08-08T09:37:49;4.70;;;2.13;;
13927;SDS011;7036;50.834;4.718;2023-08-08T09:40:16;3.60;;;1.92;;
13927;SDS011;7036;50.834;4.718;2023-08-08T09:42:43;4.85;;;2.17;;
13927;SDS011;7036;50.834;4.718;2023-08-08T09:45:17;6.38;;;2.40;;
13927;SDS011;7036;50.834;4.718;2023-08-08T09:47:44;6.13;;;2.07;;
13927;SDS011;7036;50.834;4.718;2023-08-08T09:50:11;6.85;;;2.25;;
13927;SDS011;7036;50.834;4.718;2023-08-08T09:52:39;3.05;;;1.85;;
13927;SDS011;7036;50.834;4.718;2023-08-08T09:55:07;5.25;;;2.03;;
13927;SDS011;7036;50.834;4.718;2023-08-08T09:57:36;8.45;;;2.50;;
13927;SDS011;7036;50.834;4.718;2023-08-08T10:00:03;5.43;;;1.70;;
13927;SDS011;7036;50.834;4.718;2023-08-08T10:02:30;5.80;;;2.10;;
13927;SDS011;7036;50.834;4.718;2023-08-08T10:04:59;6.43;;;2.10;;
13927;SDS011;7036;50.834;4.718;2023-08-08T10:07:26;3.73;;;1.77;;
13927;SDS011;7036;50.834;4.718;2023-08-08T10:09:53;5.45;;;2.25;;
13927;SDS011;7036;50.834;4.718;2023-08-08T10:12:20;6.43;;;2.75;;
13927;SDS011;7036;50.834;4.718;2023-08-08T10:14:47;6.28;;;2.72;;
13927;SDS011;7036;50.834;4.718;2023-08-08T10:17:16;6.18;;;2.72;;
13927;SDS011;7036;50.834;4.718;2023-08-08T10:19:50;8.25;;;2.47;;
13927;SDS011;7036;50.834;4.718;2023-08-08T10:22:16;9.07;;;2.70;;
13927;SDS011;7036;50.834;4.718;2023-08-08T10:24:46;4.35;;;2.22;;
13927;SDS011;7036;50.834;4.718;2023-08-08T10:27:11;6.87;;;2.93;;
13927;SDS011;7036;50.834;4.718;2023-08-08T10:29:39;5.68;;;3.50;;
13927;SDS011;7036;50.834;4.718;2023-08-08T10:32:07;6.17;;;2.87;;
13927;SDS011;7036;50.834;4.718;2023-08-08T10:34:37;5.53;;;2.27;;
13927;SDS011;7036;50.834;4.718;2023-08-08T10:37:11;5.23;;;2.60;;
13927;SDS011;7036;50.834;4.718;2023-08-08T10:39:48;5.60;;;2.80;;
13927;SDS011;7036;50.834;4.718;2023-08-08T10:42:05;7.83;;;3.10;;
13927;SDS011;7036;50.834;4.718;2023-08-08T10:44:40;8.63;;;2.88;;
13927;SDS011;7036;50.834;4.718;2023-08-08T10:47:00;4.13;;;2.20;;
13927;SDS011;7036;50.834;4.718;2023-08-08T10:49:27;4.90;;;2.70;;
13927;SDS011;7036;50.834;4.718;2023-08-08T10:52:01;5.32;;;2.55;;
13927;SDS011;7036;50.834;4.718;2023-08-08T10:54:22;6.43;;;2.80;;
13927;SDS011;7036;50.834;4.718;2023-08-08T10:56:53;5.38;;;2.78;;
13927;SDS011;7036;50.834;4.718;2023-08-08T10:59:20;9.17;;;3.50;;
13927;SDS011;7036;50.834;4.718;2023-08-08T11:01:47;4.55;;;2.88;;
13927;SDS011;7036;50.834;4.718;2023-08-08T11:04:13;5.47;;;2.80;;
13927;SDS011;7036;50.834;4.718;2023-08-08T11:06:41;7.78;;;2.63;;
13927;SDS011;7036;50.834;4.718;2023-08-08T11:09:09;10.05;;;3.20;;
13927;SDS011;7036;50.834;4.718;2023-08-08T11:11:39;6.35;;;2.65;;
13927;SDS011;7036;50.834;4.718;2023-08-08T11:14:10;10.70;;;2.97;;
13927;SDS011;7036;50.834;4.718;2023-08-08T11:16:42;10.60;;;3.03;;
13927;SDS011;7036;50.834;4.718;2023-08-08T11:19:09;11.35;;;2.97;;
13927;SDS011;7036;50.834;4.718;2023-08-08T11:21:39;6.10;;;2.72;;
13927;SDS011;7036;50.834;4.718;2023-08-08T11:24:05;5.05;;;2.28;;
13927;SDS011;7036;50.834;4.718;2023-08-08T11:26:32;8.17;;;2.90;;
13927;SDS011;7036;50.834;4.718;2023-08-08T11:28:59;5.47;;;2.30;;
13927;SDS011;7036;50.834;4.718;2023-08-08T11:31:27;4.80;;;2.50;;
13927;SDS011;7036;50.834;4.718;2023-08-08T11:33:54;5.65;;;2.83;;
13927;SDS011;7036;50.834;4.718;2023-08-08T11:36:22;13.68;;;3.03;;
13927;SDS011;7036;50.834;4.718;2023-08-08T11:38:49;9.93;;;2.75;;
13927;SDS011;7036;50.834;4.718;2023-08-08T11:41:16;8.65;;;2.67;;
13927;SDS011;7036;50.834;4.718;2023-08-08T11:43:44;3.30;;;2.03;;
13927;SDS011;7036;50.834;4.718;2023-08-08T11:46:12;7.25;;;3.25;;
13927;SDS011;7036;50.834;4.718;2023-08-08T11:48:40;10.10;;;2.90;;
13927;SDS011;7036;50.834;4.718;2023-08-08T11:51:08;5.80;;;2.65;;
13927;SDS011;7036;50.834;4.718;2023-08-08T11:53:36;6.38;;;3.08;;
13927;SDS011;7036;50.834;4.718;2023-08-08T11:56:03;5.55;;;2.63;;
13927;SDS011;7036;50.834;4.718;2023-08-08T11:58:32;5.10;;;2.28;;
13927;SDS011;7036;50.834;4.718;2023-08-08T12:00:59;3.80;;;2.53;;
13927;SDS011;7036;50.834;4.718;2023-08-08T12:03:27;4.75;;;2.45;;
13927;SDS011;7036;50.834;4.718;2023-08-08T12:05:55;4.70;;;2.72;;
13927;SDS011;7036;50.834;4.718;2023-08-08T12:08:23;6.32;;;2.33;;
13927;SDS011;7036;50.834;4.718;2023-08-08T12:10:51;6.10;;;2.20;;
13927;SDS011;7036;50.834;4.718;2023-08-08T12:13:25;5.57;;;2.22;;
13927;SDS011;7036;50.834;4.718;2023-08-08T12:15:52;5.43;;;2.60;;
13927;SDS011;7036;50.834;4.718;2023-08-08T12:18:19;4.47;;;2.50;;
13927;SDS011;7036;50.834;4.718;2023-08-08T12:20:50;5.25;;;2.72;;
13927;SDS011;7036;50.834;4.718;2023-08-08T12:23:16;5.03;;;2.27;;
13927;SDS011;7036;50.834;4.718;2023-08-08T12:25:44;7.68;;;2.17;;
13927;SDS011;7036;50.834;4.718;2023-08-08T12:28:12;7.07;;;2.70;;
13927;SDS011;7036;50.834;4.718;2023-08-08T12:30:39;4.38;;;2.20;;
13927;SDS011;7036;50.834;4.718;2023-08-08T12:33:07;11.32;;;2.95;;
13927;SDS011;7036;50.834;4.718;2023-08-08T12:35:34;7.25;;;3.00;;
13927;SDS011;7036;50.834;4.718;2023-08-08T12:38:02;8.38;;;2.35;;
13927;SDS011;7036;50.834;4.718;2023-08-08T12:40:29;9.10;;;2.83;;
13927;SDS011;7036;50.834;4.718;2023-08-08T12:42:57;5.35;;;2.15;;
13927;SDS011;7036;50.834;4.718;2023-08-08T12:45:25;6.05;;;3.00;;
13927;SDS011;7036;50.834;4.718;2023-08-08T12:47:52;5.40;;;2.28;;
13927;SDS011;7036;50.834;4.718;2023-08-08T12:50:19;6.38;;;2.45;;
13927;SDS011;7036;50.834;4.718;2023-08-08T12:52:47;5.35;;;2.50;;
13927;SDS011;7036;50.834;4.718;2023-08-08T12:55:15;8.23;;;2.85;;
13927;SDS011;7036;50.834;4.718;2023-08-08T12:57:43;6.78;;;2.28;;
13927;SDS011;7036;50.834;4.718;2023-08-08T13:00:10;5.93;;;2.38;;
13927;SDS011;7036;50.834;4.718;2023-08-08T13:02:38;7.05;;;2.35;;
13927;SDS011;7036;50.834;4.718;2023-08-08T13:05:05;3.05;;;2.20;;
13927;SDS011;7036;50.834;4.718;2023-08-08T13:07:34;4.55;;;2.15;;
13927;SDS011;7036;50.834;4.718;2023-08-08T13:10:00;7.77;;;2.70;;
13927;SDS011;7036;50.834;4.718;2023-08-08T13:12:28;6.63;;;2.35;;
13927;SDS011;7036;50.834;4.718;2023-08-08T13:14:56;4.05;;;2.40;;
13927;SDS011;7036;50.834;4.718;2023-08-08T13:17:24;9.02;;;3.03;;
13927;SDS011;7036;50.834;4.718;2023-08-08T13:19:53;8.88;;;3.15;;
13927;SDS011;7036;50.834;4.718;2023-08-08T13:22:20;8.03;;;3.10;;
13927;SDS011;7036;50.834;4.718;2023-08-08T13:24:48;7.40;;;3.50;;
13927;SDS011;7036;50.834;4.718;2023-08-08T13:27:15;5.60;;;2.33;;
13927;SDS011;7036;50.834;4.718;2023-08-08T13:29:42;6.30;;;2.67;;
13927;SDS011;7036;50.834;4.718;2023-08-08T13:32:10;9.27;;;2.53;;
13927;SDS011;7036;50.834;4.718;2023-08-08T13:34:38;8.05;;;2.65;;
13927;SDS011;7036;50.834;4.718;2023-08-08T13:37:06;6.47;;;2.58;;
13927;SDS011;7036;50.834;4.718;2023-08-08T13:39:33;5.93;;;3.10;;
13927;SDS011;7036;50.834;4.718;2023-08-08T13:42:01;3.90;;;2.67;;
13927;SDS011;7036;50.834;4.718;2023-08-08T13:44:29;7.45;;;2.75;;
13927;SDS011;7036;50.834;4.718;2023-08-08T13:46:56;6.40;;;3.03;;
13927;SDS011;7036;50.834;4.718;2023-08-08T13:49:24;7.63;;;2.70;;
13927;SDS011;7036;50.834;4.718;2023-08-08T13:51:54;6.90;;;2.67;;
13927;SDS011;7036;50.834;4.718;2023-08-08T13:54:18;4.97;;;2.35;;
13927;SDS011;7036;50.834;4.718;2023-08-08T13:56:46;6.18;;;2.97;;
13927;SDS011;7036;50.834;4.718;2023-08-08T13:59:14;6.22;;;2.83;;
13927;SDS011;7036;50.834;4.718;2023-08-08T14:01:41;7.55;;;2.70;;
13927;SDS011;7036;50.834;4.718;2023-08-08T14:04:09;4.22;;;2.35;;
13927;SDS011;7036;50.834;4.718;2023-08-08T14:06:37;4.28;;;2.67;;
13927;SDS011;7036;50.834;4.718;2023-08-08T14:09:04;5.73;;;2.33;;
13927;SDS011;7036;50.834;4.718;2023-08-08T14:11:32;6.63;;;2.67;;
13927;SDS011;7036;50.834;4.718;2023-08-08T14:13:59;4.18;;;2.53;;
13927;SDS011;7036;50.834;4.718;2023-08-08T14:16:27;4.95;;;2.53;;
13927;SDS011;7036;50.834;4.718;2023-08-08T14:18:54;4.55;;;2.63;;
13927;SDS011;7036;50.834;4.718;2023-08-08T14:21:21;4.97;;;2.38;;
13927;SDS011;7036;50.834;4.718;2023-08-08T14:23:48;6.78;;;2.00;;
13927;SDS011;7036;50.834;4.718;2023-08-08T14:26:16;4.15;;;2.17;;
13927;SDS011;7036;50.834;4.718;2023-08-08T14:28:44;3.78;;;2.25;;
13927;SDS011;7036;50.834;4.718;2023-08-08T14:31:13;5.85;;;2.58;;
13927;SDS011;7036;50.834;4.718;2023-08-08T14:33:40;2.63;;;2.00;;
13927;SDS011;7036;50.834;4.718;2023-08-08T14:36:08;4.07;;;2.47;;
13927;SDS011;7036;50.834;4.718;2023-08-08T14:38:35;6.25;;;2.50;;
13927;SDS011;7036;50.834;4.718;2023-08-08T14:41:02;4.07;;;2.33;;
13927;SDS011;7036;50.834;4.718;2023-08-08T14:43:30;4.22;;;2.08;;
13927;SDS011;7036;50.834;4.718;2023-08-08T14:45:58;3.80;;;2.05;;
13927;SDS011;7036;50.834;4.718;2023-08-08T14:48:26;3.50;;;2.20;;
13927;SDS011;7036;50.834;4.718;2023-08-08T14:50:54;3.28;;;2.30;;
13927;SDS011;7036;50.834;4.718;2023-08-08T14:53:21;3.50;;;2.60;;
13927;SDS011;7036;50.834;4.718;2023-08-08T14:55:49;5.25;;;2.83;;
13927;SDS011;7036;50.834;4.718;2023-08-08T14:58:17;4.65;;;2.90;;
13927;SDS011;7036;50.834;4.718;2023-08-08T15:00:44;3.17;;;1.92;;
13927;SDS011;7036;50.834;4.718;2023-08-08T15:03:11;6.38;;;2.58;;
13927;SDS011;7036;50.834;4.718;2023-08-08T15:05:39;5.60;;;2.88;;